Time;durP1;ratioP1;P1;durP2;ratioP2;P2;SDS_P1;SDS_P2;PMS_P1;PMS_P2;Temp;Humidity;BMP_temperature;BMP_pressure;BME280_temperature;BME280_humidity;BME280_pressure;Samples;Min_cycle;Max_cycle;Signal;HPM_P1;HPM_P2
2022/10/02 00:02:58;;;;;;;9.27;7.87;;;;;;;10.29;100.00;98220.11;2291491;78;21328;-82
2022/10/02 00:05:58;;;;;;;8.53;7.60;;;;;;;10.28;100.00;98223.15;2291643;78;20919;-83
2022/10/02 00:08:59;;;;;;;9.13;8.17;;;;;;;10.28;100.00;98222.28;2291867;78;20908;-81
2022/10/02 00:11:59;;;;;;;12.00;9.13;;;;;;;10.29;100.00;98224.02;2292493;78;20967;-82
2022/10/02 00:15:00;;;;;;;10.33;8.37;;;;;;;10.32;100.00;98233.16;2292567;78;20876;-82
2022/10/02 00:18:00;;;;;;;9.80;8.80;;;;;;;10.30;100.00;98232.28;2292647;78;20964;-82
2022/10/02 00:21:01;;;;;;;8.77;7.33;;;;;;;10.31;100.00;98234.02;2292574;78;21221;-82
2022/10/02 00:24:01;;;;;;;13.23;8.50;;;;;;;10.31;100.00;98232.72;2292309;78;20904;-81
2022/10/02 00:27:01;;;;;;;10.40;8.23;;;;;;;10.34;100.00;98227.52;2284873;78;21009;-81
2022/10/02 00:30:02;;;;;;;10.23;7.97;;;;;;;10.36;100.00;98228.39;2282295;78;20938;-80
2022/10/02 00:33:02;;;;;;;10.03;7.10;;;;;;;10.35;100.00;98230.56;2282268;78;20938;-81
2022/10/02 00:36:03;;;;;;;8.77;7.90;;;;;;;10.38;100.00;98233.17;2282168;78;20903;-81
2022/10/02 00:39:03;;;;;;;12.87;8.23;;;;;;;10.40;100.00;98235.36;2282292;78;20887;-81
2022/10/02 00:42:03;;;;;;;9.23;8.33;;;;;;;10.39;100.00;98232.31;2282254;78;20918;-81
2022/10/02 00:45:04;;;;;;;11.03;8.00;;;;;;;10.41;100.00;98229.30;2282278;78;21282;-82
2022/10/02 00:48:04;;;;;;;8.10;7.10;;;;;;;10.42;100.00;98229.73;2282060;78;20898;-81
2022/10/02 00:51:05;;;;;;;7.70;6.50;;;;;;;10.42;100.00;98228.44;2282147;78;20930;-80
2022/10/02 00:54:05;;;;;;;12.00;8.10;;;;;;;10.42;100.00;98228.44;2282241;78;20883;-81
2022/10/02 00:57:05;;;;;;;9.27;7.10;;;;;;;10.43;100.00;98244.53;2281993;77;20980;-81
2022/10/02 01:00:07;;;;;;;6.80;6.10;;;;;;;10.43;100.00;98240.61;2281942;78;20946;-81
2022/10/02 01:03:06;;;;;;;11.23;5.53;;;;;;;10.45;100.00;98242.36;2282054;78;20906;-81
2022/10/02 01:06:07;;;;;;;7.93;6.00;;;;;;;10.44;100.00;98239.31;2282168;78;20899;-80
2022/10/02 01:09:07;;;;;;;6.33;5.73;;;;;;;10.47;100.00;98242.36;2282051;78;20899;-81
2022/10/02 01:12:08;;;;;;;8.53;7.07;;;;;;;10.49;100.00;98247.16;2281886;78;20930;-80
2022/10/02 01:15:08;;;;;;;8.87;6.40;;;;;;;10.50;100.00;98248.89;2281804;78;20895;-80
2022/10/02 01:18:08;;;;;;;6.87;6.00;;;;;;;10.50;100.00;98247.59;2282126;78;20859;-80
2022/10/02 01:21:09;;;;;;;7.47;5.70;;;;;;;10.50;100.00;98247.59;2281839;78;21287;-81
2022/10/02 01:24:09;;;;;;;8.07;6.77;;;;;;;10.51;100.00;98250.64;2282067;77;20898;-81
2022/10/02 01:27:10;;;;;;;7.70;6.23;;;;;;;10.53;100.00;98253.69;2260072;77;20996;-80
2022/10/02 01:30:10;;;;;;;9.70;5.63;;;;;;;10.53;100.00;98260.22;2249930;78;21348;-80
2022/10/02 01:33:10;;;;;;;6.33;5.73;;;;;;;10.53;100.00;98263.25;2249662;79;20893;-81
2022/10/02 01:36:14;;;;;;;8.23;5.83;;;;;;;10.52;100.00;98262.38;2249923;78;20932;-81
2022/10/02 01:39:14;;;;;;;7.93;5.60;;;;;;;10.53;100.00;98263.25;2249793;79;21288;-80
2022/10/02 01:42:14;;;;;;;6.53;5.93;;;;;;;10.51;100.00;98275.43;2249836;78;20900;-81
2022/10/02 01:45:15;;;;;;;9.10;5.70;;;;;;;10.50;100.00;98278.47;2250057;79;20908;-81
2022/10/02 01:48:15;;;;;;;8.10;6.10;;;;;;;10.51;100.00;98275.43;2250182;78;20916;-80
2022/10/02 01:51:16;;;;;;;7.03;6.43;;;;;;;10.50;100.00;98273.25;2250078;79;20920;-80
2022/10/02 01:54:16;;;;;;;9.83;7.70;;;;;;;10.53;100.00;98271.09;2250112;78;20947;-81
2022/10/02 01:57:16;;;;;;;8.93;6.50;;;;;;;10.55;100.00;98275.88;2250074;78;20952;-80
2022/10/02 02:00:17;;;;;;;10.93;7.40;;;;;;;10.55;100.00;98275.00;2250378;78;20872;-80
2022/10/02 02:03:17;;;;;;;9.07;7.43;;;;;;;10.57;100.00;98272.84;2250414;78;21265;-80
2022/10/02 02:06:18;;;;;;;8.97;7.47;;;;;;;10.57;100.00;98278.05;2250208;78;20888;-80
2022/10/02 02:09:18;;;;;;;7.60;6.87;;;;;;;10.57;100.00;98283.70;2250385;79;20915;-80
2022/10/02 02:12:19;;;;;;;13.70;7.80;;;;;;;10.62;100.00;98287.20;2250380;78;20932;-80
2022/10/02 02:15:19;;;;;;;9.10;8.20;;;;;;;10.60;100.00;98288.50;2249822;79;21243;-82
2022/10/02 02:18:19;;;;;;;12.13;7.53;;;;;;;10.59;100.00;98293.28;2249958;79;20905;-81
2022/10/02 02:21:20;;;;;;;8.37;7.10;;;;;;;10.58;100.00;98285.45;2250203;78;20947;-81
2022/10/02 02:24:20;;;;;;;6.13;5.53;;;;;;;10.56;100.00;98289.36;2250092;78;20861;-81
2022/10/02 02:27:21;;;;;;;6.50;5.87;;;;;;;10.54;100.00;98289.79;2254588;77;21397;-80
2022/10/02 02:30:21;;;;;;;7.83;5.57;;;;;;;10.51;100.00;98292.39;2263862;78;20915;-81
2022/10/02 02:33:21;;;;;;;8.13;5.30;;;;;;;10.51;100.00;98294.56;2250251;78;20893;-81
2022/10/02 02:36:22;;;;;;;6.80;5.17;;;;;;;10.50;100.00;98295.43;2249918;78;20932;-80
2022/10/02 02:39:22;;;;;;;6.10;5.50;;;;;;;10.50;100.00;98297.17;2250083;79;20916;-80
2022/10/02 02:42:23;;;;;;;6.00;4.87;;;;;;;10.49;100.00;98296.30;2249629;79;20897;-82
2022/10/02 02:45:23;;;;;;;7.00;5.67;;;;;;;10.48;100.00;98297.60;2249614;79;20915;-82
2022/10/02 02:48:24;;;;;;;7.27;5.97;;;;;;;10.46;100.00;98299.33;2249759;78;20899;-83
2022/10/02 02:51:24;;;;;;;5.93;5.30;;;;;;;10.45;100.00;98302.37;2249609;78;20916;-83
2022/10/02 02:54:24;;;;;;;6.10;5.50;;;;;;;10.44;100.00;98302.37;2249991;78;20897;-80
2022/10/02 02:57:25;;;;;;;7.70;6.67;;;;;;;10.43;100.00;98304.54;2249618;79;20995;-81
2022/10/02 03:00:25;;;;;;;6.47;5.30;;;;;;;10.43;100.00;98304.11;2249855;78;21280;-80
2022/10/02 03:03:25;;;;;;;8.93;7.37;;;;;;;10.43;100.00;98306.72;2249916;79;20893;-82
2022/10/02 03:06:26;;;;;;;9.53;5.90;;;;;;;10.46;100.00;98305.85;2249982;78;20861;-81
2022/10/02 03:09:26;;;;;;;7.57;6.47;;;;;;;10.47;100.00;98311.08;2249752;79;20944;-80
2022/10/02 03:12:27;;;;;;;8.77;6.13;;;;;;;10.47;100.00;98312.81;2249698;78;20939;-80
2022/10/02 03:15:27;;;;;;;9.57;6.37;;;;;;;10.49;100.00;98318.91;2249943;79;20900;-80
2022/10/02 03:18:27;;;;;;;6.70;6.10;;;;;;;10.50;100.00;98315.44;2249955;78;21249;-82
2022/10/02 03:21:28;;;;;;;10.93;7.50;;;;;;;10.51;100.00;98321.09;2250057;78;20923;-81
2022/10/02 03:24:28;;;;;;;5.47;4.87;;;;;;;10.50;100.00;98318.92;2250353;79;20899;-81
2022/10/02 03:27:29;;;;;;;7.43;5.23;;;;;;;10.48;100.00;98321.95;2278263;77;20985;-81
2022/10/02 03:30:29;;;;;;;5.47;4.83;;;;;;;10.46;100.00;98317.59;2292555;77;20971;-80
2022/10/02 03:33:30;;;;;;;5.27;4.70;;;;;;;10.42;100.00;98328.45;2291854;78;20929;-81
2022/10/02 03:36:30;;;;;;;5.57;4.57;;;;;;;10.41;100.00;98331.93;2292000;78;20917;-80
2022/10/02 03:39:30;;;;;;;9.57;4.00;;;;;;;10.40;100.00;98332.80;2292012;78;20888;-82
2022/10/02 03:42:31;;;;;;;3.70;3.40;;;;;;;10.39;100.00;98338.84;2292303;78;20865;-81
2022/10/02 03:45:31;;;;;;;4.43;4.03;;;;;;;10.39;100.00;98337.97;2292392;78;20955;-80
2022/10/02 03:48:32;;;;;;;5.57;4.33;;;;;;;10.39;100.00;98341.45;2291858;78;21335;-81
2022/10/02 03:51:32;;;;;;;5.13;3.97;;;;;;;10.37;100.00;98336.66;2292234;78;20916;-81
2022/10/02 03:54:33;;;;;;;3.40;3.20;;;;;;;10.40;100.00;98357.58;2291838;78;20908;-80
2022/10/02 03:57:33;;;;;;;5.70;3.53;;;;;;;10.40;100.00;98346.23;2291939;78;20975;-81
2022/10/02 04:00:33;;;;;;;3.20;2.73;;;;;;;10.42;100.00;98351.06;2292050;78;21287;-81
2022/10/02 04:03:34;;;;;;;3.40;3.10;;;;;;;10.40;100.00;98358.88;2291905;78;20892;-80
2022/10/02 04:06:34;;;;;;;5.03;3.47;;;;;;;10.38;100.00;98359.70;2291927;78;20908;-80
2022/10/02 04:09:34;;;;;;;3.47;3.17;;;;;;;10.36;100.00;98362.31;2292044;78;20865;-81
2022/10/02 04:12:35;;;;;;;4.60;3.90;;;;;;;10.36;100.00;98365.35;2291872;78;21268;-81
2022/10/02 04:15:35;;;;;;;4.13;3.73;;;;;;;10.37;100.00;98361.87;2292015;78;20900;-80
2022/10/02 04:18:36;;;;;;;6.70;3.73;;;;;;;10.36;100.00;98373.17;2291803;78;20893;-81
2022/10/02 04:21:36;;;;;;;4.03;3.63;;;;;;;10.36;100.00;98377.96;2292024;78;20932;-80
2022/10/02 04:24:37;;;;;;;4.40;3.87;;;;;;;10.36;100.00;98384.92;2292440;78;21067;-82
2022/10/02 04:27:37;;;;;;;8.00;4.90;;;;;;;10.36;100.00;98383.61;2269042;77;20963;-81
2022/10/02 04:30:37;;;;;;;13.27;4.80;;;;;;;10.35;100.00;98397.52;2290248;78;20932;-79
2022/10/02 04:33:38;;;;;;;6.10;4.87;;;;;;;10.35;100.00;98395.78;2292136;78;20869;-79
2022/10/02 04:36:38;;;;;;;5.10;4.60;;;;;;;10.35;100.00;98399.70;2292253;78;21336;-81
2022/10/02 04:39:38;;;;;;;7.67;4.87;;;;;;;10.37;100.00;98403.62;2292189;78;20889;-82
2022/10/02 04:42:39;;;;;;;5.90;5.10;;;;;;;10.37;100.00;98414.06;2292384;78;20880;-81
2022/10/02 04:45:39;;;;;;;6.20;4.43;;;;;;;10.37;100.00;98414.92;2292513;78;20904;-82
2022/10/02 04:48:40;;;;;;;9.33;5.43;;;;;;;10.36;100.00;98415.80;2292110;78;20951;-81
2022/10/02 04:51:40;;;;;;;9.33;5.73;;;;;;;10.37;100.00;98418.84;2291500;78;20943;-80
2022/10/02 04:54:40;;;;;;;7.77;5.57;;;;;;;10.36;100.00;98419.70;2291989;78;20899;-81
2022/10/02 04:57:41;;;;;;;7.67;5.83;;;;;;;10.37;100.00;98416.66;2291143;78;20975;-80
2022/10/02 05:00:41;;;;;;;11.87;6.00;;;;;;;10.39;100.00;98427.98;2290808;78;20975;-80
2022/10/02 05:03:42;;;;;;;6.10;5.00;;;;;;;10.40;100.00;98427.12;2290725;78;20914;-80
2022/10/02 05:06:42;;;;;;;9.93;4.90;;;;;;;10.43;100.00;98428.47;2290627;78;20861;-79
2022/10/02 05:09:42;;;;;;;7.13;5.20;;;;;;;10.45;100.00;98435.88;2290528;78;21265;-80
2022/10/02 05:12:43;;;;;;;9.67;5.70;;;;;;;10.45;100.00;98442.41;2290892;78;20909;-80
2022/10/02 05:15:43;;;;;;;13.63;4.80;;;;;;;10.48;100.00;98442.42;2291108;78;20934;-80
2022/10/02 05:18:44;;;;;;;8.97;4.90;;;;;;;10.47;100.00;98436.33;2291329;78;20904;-81
2022/10/02 05:21:44;;;;;;;9.03;4.40;;;;;;;10.49;100.00;98449.39;2291814;78;20935;-80
2022/10/02 05:24:47;;;;;;;6.00;4.27;;;;;;;10.49;100.00;98452.00;2292108;78;20900;-80
2022/10/02 05:27:48;;;;;;;7.93;4.53;;;;;;;10.51;100.00;98453.75;2292018;78;21027;-79
2022/10/02 05:30:48;;;;;;;5.57;3.60;;;;;;;10.55;100.00;98461.59;2283459;78;21361;-80
2022/10/02 05:33:48;;;;;;;4.80;3.73;;;;;;;10.55;100.00;98460.30;2281974;78;20901;-80
2022/10/02 05:36:49;;;;;;;4.43;3.50;;;;;;;10.59;100.00;98467.27;2282225;78;20925;-81
2022/10/02 05:39:49;;;;;;;7.77;3.20;;;;;;;10.63;100.00;98473.83;2282175;78;21274;-81
2022/10/02 05:42:50;;;;;;;7.07;2.87;;;;;;;10.67;100.00;98478.20;2281868;78;20906;-81
2022/10/02 05:45:50;;;;;;;6.47;3.03;;;;;;;10.69;100.00;98475.16;2281948;77;20914;-81
2022/10/02 05:48:50;;;;;;;4.63;3.13;;;;;;;10.73;100.00;98483.88;2281837;77;20929;-81
2022/10/02 05:51:52;;;;;;;4.60;3.03;;;;;;;10.75;100.00;98484.33;2281655;78;20969;-81
2022/10/02 05:54:51;;;;;;;10.03;3.40;;;;;;;10.79;100.00;98483.92;2281933;78;20874;-82
2022/10/02 05:57:52;;;;;;;6.27;3.40;;;;;;;10.81;100.00;98492.20;2276367;78;20977;-81
2022/10/02 06:00:52;;;;;;;4.90;3.40;;;;;;;10.79;100.00;98492.63;2257180;78;20859;-81
2022/10/02 06:03:52;;;;;;;7.77;3.73;;;;;;;10.78;100.00;98497.41;2281871;78;20934;-81
2022/10/02 06:06:53;;;;;;;7.30;3.30;;;;;;;10.80;100.00;98500.89;2281998;77;20879;-81
2022/10/02 06:09:53;;;;;;;6.10;3.10;;;;;;;10.81;100.00;98501.34;2281740;78;21263;-80
2022/10/02 06:12:54;;;;;;;5.53;2.90;;;;;;;10.84;100.00;98511.80;2281647;78;20937;-81
2022/10/02 06:15:54;;;;;;;4.57;2.93;;;;;;;10.87;100.00;98504.84;2281942;78;20946;-80
2022/10/02 06:18:55;;;;;;;5.67;2.93;;;;;;;10.87;100.00;98513.98;2281806;78;21250;-81
2022/10/02 06:21:55;;;;;;;6.63;2.80;;;;;;;10.84;100.00;98526.16;2281782;77;20894;-80
2022/10/02 06:24:55;;;;;;;12.37;3.40;;;;;;;10.84;100.00;98517.45;2281909;78;20891;-80
2022/10/02 06:27:56;;;;;;;7.67;2.53;;;;;;;10.83;99.95;98519.19;2281838;78;20950;-80
2022/10/02 06:30:56;;;;;;;7.27;3.20;;;;;;;10.86;99.78;98524.86;2256418;78;20936;-80
2022/10/02 06:33:57;;;;;;;8.30;3.70;;;;;;;10.90;99.61;98528.36;2249578;78;20888;-81
2022/10/02 06:36:57;;;;;;;4.57;2.80;;;;;;;10.91;99.51;98527.49;2249326;78;20873;-80
2022/10/02 06:39:57;;;;;;;10.47;3.10;;;;;;;10.94;98.19;98534.05;2248861;78;20971;-80
2022/10/02 06:42:58;;;;;;;8.07;2.60;;;;;;;11.02;97.02;98544.09;2249355;78;20947;-80
2022/10/02 06:45:59;;;;;;;6.90;3.03;;;;;;;11.10;96.73;98547.62;2249453;78;20900;-80
2022/10/02 06:48:59;;;;;;;7.70;2.40;;;;;;;11.18;96.50;98558.98;2249452;78;20904;-80
2022/10/02 06:51:59;;;;;;;6.73;2.13;;;;;;;11.19;95.48;98555.50;2249429;78;20999;-80
2022/10/02 06:55:00;;;;;;;9.80;2.70;;;;;;;11.22;94.92;98563.78;2249125;78;20908;-80
2022/10/02 06:58:02;;;;;;;7.23;3.17;;;;;;;11.23;94.07;98567.71;2248686;79;20924;-80
2022/10/02 07:01:01;;;;;;;12.70;3.30;;;;;;;11.18;94.65;98569.42;2248777;78;21307;-80
2022/10/02 07:04:02;;;;;;;14.97;3.10;;;;;;;11.15;94.37;98568.11;2248414;79;20920;-80
2022/10/02 07:07:01;;;;;;;8.73;2.73;;;;;;;11.14;93.83;98568.54;2248271;78;20913;-79
2022/10/02 07:10:02;;;;;;;8.17;2.63;;;;;;;11.15;94.30;98568.11;2248237;78;20944;-81
2022/10/02 07:13:02;;;;;;;5.50;2.60;;;;;;;11.20;94.54;98572.05;2249057;78;20873;-80
2022/10/02 07:16:07;;;;;;;10.73;2.90;;;;;;;11.26;93.86;98576.00;2248843;78;20881;-80
2022/10/02 07:19:03;;;;;;;6.63;2.50;;;;;;;11.29;93.84;98580.84;2248764;78;20943;-80
2022/10/02 07:22:03;;;;;;;6.07;3.10;;;;;;;11.30;94.12;98583.89;2248768;78;20938;-81
2022/10/02 07:25:04;;;;;;;10.93;3.37;;;;;;;11.37;94.05;98579.12;2248775;78;20924;-81
2022/10/02 07:28:04;;;;;;;7.50;3.12;;;;;;;11.36;93.29;98580.44;2248751;78;20944;-80
2022/10/02 07:31:05;;;;;;;9.70;3.13;;;;;;;11.43;93.17;98577.84;2280117;77;20967;-81
2022/10/02 07:34:05;;;;;;;6.80;2.63;;;;;;;11.52;93.02;98577.45;2291465;78;20892;-81
2022/10/02 07:37:06;;;;;;;7.33;2.50;;;;;;;11.61;92.78;98582.70;2291664;78;20939;-81
2022/10/02 07:40:09;;;;;;;11.33;5.80;;;;;;;11.66;92.87;98580.98;2291674;78;20869;-84
2022/10/02 07:43:06;;;;;;;48.52;31.37;;;;;;;12.08;100.00;98578.50;2291876;78;20892;-84
2022/10/02 07:46:08;;;;;;;229.95;172.25;;;;;;;14.05;100.00;98578.59;2291886;78;21311;-84
2022/10/02 07:49:07;;;;;;;186.70;139.10;;;;;;;15.42;100.00;98577.42;2291828;78;20892;-83
2022/10/02 07:52:08;;;;;;;32.03;24.75;;;;;;;16.65;100.00;98574.88;2291550;78;21280;-82
2022/10/02 07:55:08;;;;;;;11.00;6.53;;;;;;;16.81;83.45;98577.25;2291397;78;20952;-82
2022/10/02 07:58:09;;;;;;;9.93;4.90;;;;;;;15.78;81.10;98578.34;2291302;78;20959;-81
2022/10/02 08:01:09;;;;;;;12.28;5.05;;;;;;;14.80;80.29;98582.89;2291290;78;21256;-81
2022/10/02 08:04:09;;;;;;;9.18;4.35;;;;;;;14.08;81.40;98582.08;2291440;78;20923;-82
2022/10/02 08:07:12;;;;;;;9.03;5.28;;;;;;;13.54;83.30;98581.45;2291372;78;20924;-82
2022/10/02 08:10:10;;;;;;;8.98;5.10;;;;;;;13.33;84.17;98573.67;2291398;78;20939;-83
2022/10/02 08:13:11;;;;;;;12.05;4.47;;;;;;;13.21;85.41;98571.09;2291702;78;20935;-82
2022/10/02 08:16:12;;;;;;;9.65;3.70;;;;;;;13.14;85.01;98574.14;2291373;78;20888;-83
2022/10/02 08:19:11;;;;;;;7.30;3.37;;;;;;;13.12;84.83;98571.95;2291323;78;20924;-81
2022/10/02 08:22:12;;;;;;;13.68;4.78;;;;;;;13.10;85.19;98571.09;2291189;78;20905;-82
2022/10/02 08:25:12;;;;;;;8.70;4.30;;;;;;;13.12;85.95;98569.78;2291530;78;21242;-81
2022/10/02 08:28:31;;;;;;;11.73;3.65;;;;;;;13.10;85.13;98573.71;2291075;78;21031;-82
2022/10/02 08:31:31;;;;;;;7.53;3.25;;;;;;;13.10;84.57;98580.70;2282861;78;20910;-83
2022/10/02 08:34:32;;;;;;;12.80;3.95;;;;;;;13.18;84.74;98570.66;2281662;78;20902;-83
2022/10/02 08:37:32;;;;;;;12.07;3.83;;;;;;;13.27;84.14;98570.64;2281854;78;20906;-81
2022/10/02 08:40:32;;;;;;;11.18;4.17;;;;;;;13.34;84.31;98563.19;2281263;78;21326;-81
2022/10/02 08:43:33;;;;;;;11.10;6.42;;;;;;;13.43;84.59;98574.52;2281515;77;20988;-82
2022/10/02 08:46:33;;;;;;;9.58;3.80;;;;;;;13.56;83.70;98565.72;2281544;78;20950;-81
2022/10/02 08:49:34;;;;;;;11.05;3.83;;;;;;;13.68;82.56;98567.84;2281410;77;20925;-83
2022/10/02 08:52:34;;;;;;;10.78;3.47;;;;;;;13.78;80.70;98559.48;2281825;77;20937;-82
2022/10/02 08:55:36;;;;;;;12.05;3.67;;;;;;;13.77;80.47;98562.11;2281952;77;20894;-81
2022/10/02 08:58:35;;;;;;;14.63;3.47;;;;;;;13.80;79.90;98564.28;2281649;78;21316;-81
2022/10/02 09:01:35;;;;;;;10.55;3.58;;;;;;;13.84;79.37;98568.63;2281644;78;20875;-82
2022/10/02 09:04:37;;;;;;;13.83;3.17;;;;;;;13.83;77.53;98581.31;2281626;77;20913;-81
2022/10/02 09:07:38;;;;;;;8.58;3.05;;;;;;;14.01;78.18;98577.31;2281487;78;20938;-82
2022/10/02 09:10:37;;;;;;;7.33;2.90;;;;;;;14.25;76.66;98569.70;2281917;78;20882;-81
2022/10/02 09:13:42;;;;;;;11.87;4.33;;;;;;;14.54;76.16;98569.52;2281647;78;21306;-81
2022/10/02 09:16:37;;;;;;;10.30;3.55;;;;;;;14.60;75.22;98563.34;2281638;78;20874;-81
2022/10/02 09:19:38;;;;;;;10.95;3.85;;;;;;;14.57;76.06;98565.55;2281161;78;21116;-83
2022/10/02 09:22:38;;;;;;;12.03;3.47;;;;;;;14.47;74.74;98563.88;2281116;78;20910;-81
2022/10/02 09:25:39;;;;;;;8.25;3.92;;;;;;;14.36;74.68;98563.06;2280867;78;20914;-82
2022/10/02 09:28:39;;;;;;;13.55;4.08;;;;;;;14.21;74.88;98560.55;2280874;78;20977;-81
2022/10/02 09:31:40;;;;;;;12.68;3.33;;;;;;;14.02;75.11;98563.30;2255375;78;20976;-82
2022/10/02 09:34:40;;;;;;;11.80;3.33;;;;;;;14.01;76.76;98553.69;2249276;79;20908;-81
2022/10/02 09:37:42;;;;;;;13.75;4.30;;;;;;;13.93;76.03;98557.24;2249472;78;20916;-82
2022/10/02 09:40:41;;;;;;;9.18;3.45;;;;;;;13.97;76.97;98541.91;2249466;78;20897;-82
2022/10/02 09:43:42;;;;;;;10.90;3.72;;;;;;;14.20;75.51;98547.00;2249544;79;20947;-82
2022/10/02 09:46:43;;;;;;;8.00;3.58;;;;;;;14.37;75.67;98546.87;2249428;79;21252;-80
2022/10/02 09:49:42;;;;;;;9.33;3.55;;;;;;;14.37;74.25;98550.80;2249122;78;20944;-82
2022/10/02 09:52:42;;;;;;;9.43;3.65;;;;;;;14.51;74.11;98544.59;2249316;78;20972;-82
2022/10/02 09:55:43;;;;;;;11.60;3.58;;;;;;;14.60;75.13;98532.69;2249497;79;20902;-81
2022/10/02 09:58:43;;;;;;;8.33;3.30;;;;;;;14.62;74.67;98530.05;2249537;78;21011;-82
2022/10/02 10:01:46;;;;;;;8.30;3.22;;;;;;;14.71;73.70;98533.90;2249463;79;20912;-81
2022/10/02 10:04:47;;;;;;;8.50;2.67;;;;;;;14.54;72.67;98539.31;2249382;78;20939;-82
2022/10/02 10:07:47;;;;;;;11.63;3.95;;;;;;;14.29;73.25;98532.05;2249540;79;20884;-82
2022/10/02 10:10:48;;;;;;;12.68;2.83;;;;;;;14.00;73.22;98533.58;2249482;78;20943;-82
2022/10/02 10:13:48;;;;;;;9.78;3.02;;;;;;;13.83;74.72;98532.78;2249739;78;20935;-83
2022/10/02 10:16:49;;;;;;;8.35;3.25;;;;;;;13.75;75.40;98529.77;2249498;78;21346;-78
2022/10/02 10:19:49;;;;;;;9.60;4.00;;;;;;;14.01;77.01;98528.76;2249557;79;20885;-80
2022/10/02 10:22:50;;;;;;;10.05;4.03;;;;;;;14.45;76.33;98520.14;2249352;78;20912;-78
2022/10/02 10:25:50;;;;;;;17.37;3.62;;;;;;;14.76;74.94;98518.12;2249225;79;20908;-81
2022/10/02 10:28:50;;;;;;;9.20;3.50;;;;;;;15.07;72.09;98516.91;2248692;78;20987;-78
2022/10/02 10:31:50;;;;;;;11.43;3.72;;;;;;;15.39;69.79;98523.54;2273057;77;20950;-79
2022/10/02 10:34:51;;;;;;;13.53;3.87;;;;;;;15.53;69.02;98509.77;2280949;77;20989;-82
2022/10/02 10:41:11;;;;;;;11.18;3.50;;;;;;;15.35;69.66;98517.89;2280788;78;20941;-82
2022/10/02 10:44:10;;;;;;;8.58;2.50;;;;;;;15.38;67.78;98526.61;2281515;78;20938;-82
2022/10/02 10:47:17;;;;;;;10.98;2.80;;;;;;;15.23;66.88;98518.47;2281802;78;21241;-82
2022/10/02 10:50:11;;;;;;;10.30;3.22;;;;;;;14.95;67.86;98527.55;2281681;78;20918;-82
2022/10/02 10:53:12;;;;;;;12.23;4.00;;;;;;;14.72;70.18;98518.56;2281725;78;20922;-82
2022/10/02 10:56:12;;;;;;;8.95;3.58;;;;;;;14.66;72.06;98518.18;2281855;78;20946;-82
2022/10/02 10:59:12;;;;;;;8.50;3.45;;;;;;;14.71;73.28;98511.57;2281520;78;20981;-83
2022/10/02 11:02:13;;;;;;;11.18;3.62;;;;;;;14.73;74.19;98514.18;2281626;78;20934;-82
2022/10/02 11:05:14;;;;;;;14.05;4.12;;;;;;;14.86;75.15;98504.00;2281711;78;20965;-82
2022/10/02 11:08:17;;;;;;;11.22;3.87;;;;;;;15.01;74.50;98504.28;2281630;78;20907;-82
2022/10/02 11:11:17;;;;;;;11.90;4.05;;;;;;;14.74;73.67;98499.75;2281686;78;21286;-82
2022/10/02 11:14:18;;;;;;;10.65;3.87;;;;;;;14.58;74.00;98504.25;2281791;78;20934;-83
2022/10/02 11:17:18;;;;;;;14.43;3.92;;;;;;;14.75;74.85;98503.24;2281726;78;20895;-83
2022/10/02 11:20:19;;;;;;;8.95;3.00;;;;;;;14.96;71.80;98504.33;2281946;78;20914;-82
2022/10/02 11:23:18;;;;;;;11.03;3.77;;;;;;;15.08;72.55;98498.06;2281465;78;21255;-82
2022/10/02 11:26:20;;;;;;;10.80;3.30;;;;;;;15.28;70.85;98496.06;2281864;78;21278;-82
2022/10/02 11:29:19;;;;;;;9.75;2.98;;;;;;;15.48;71.25;98490.55;2281641;77;20985;-83
2022/10/02 11:32:26;;;;;;;10.20;3.42;;;;;;;15.71;69.16;98485.89;2289760;78;20946;-83
2022/10/02 11:35:22;;;;;;;13.53;2.75;;;;;;;15.98;69.04;98485.06;2291521;78;20873;-83
2022/10/02 11:38:22;;;;;;;8.23;3.12;;;;;;;16.06;67.19;98486.68;2291568;78;21284;-83
2022/10/02 11:41:21;;;;;;;8.78;2.92;;;;;;;16.34;67.16;98486.23;2291533;78;20896;-82
2022/10/02 11:44:23;;;;;;;6.15;2.60;;;;;;;16.50;66.65;98475.88;2291548;78;20905;-82
2022/10/02 11:47:22;;;;;;;13.78;3.05;;;;;;;16.46;66.04;98484.70;2291822;78;20889;-81
2022/10/02 11:50:22;;;;;;;6.05;2.40;;;;;;;16.24;66.22;98478.93;2291101;78;21319;-83
2022/10/02 11:53:22;;;;;;;7.90;3.05;;;;;;;15.87;64.10;98486.55;2291497;78;20873;-81
2022/10/02 11:56:23;;;;;;;11.00;3.40;;;;;;;15.55;67.34;98482.99;2291595;78;20936;-81
2022/10/02 11:59:27;;;;;;;9.45;3.33;;;;;;;15.24;70.01;98488.66;2291580;78;20988;-80
2022/10/02 12:02:24;;;;;;;7.83;2.90;;;;;;;14.93;72.13;98488.15;2291818;78;21319;-81
2022/10/02 12:05:24;;;;;;;11.83;3.65;;;;;;;14.73;74.51;98476.95;2291667;78;20957;-81
2022/10/02 12:08:29;;;;;;;10.32;3.95;;;;;;;14.55;75.41;98479.33;2291734;78;20924;-80
2022/10/02 12:11:25;;;;;;;6.67;3.33;;;;;;;14.36;76.92;98472.48;2291706;78;21276;-81
2022/10/02 12:14:25;;;;;;;10.20;4.78;;;;;;;14.27;78.04;98464.69;2291481;78;21276;-81
2022/10/02 12:17:26;;;;;;;8.38;4.20;;;;;;;14.23;78.70;98459.03;2291847;78;20912;-81
2022/10/02 12:27:08;;;;;;;10.00;4.03;;;;;;;14.60;79.58;98455.20;2291321;78;20939;-80
2022/10/02 12:30:04;;;;;;;9.30;3.90;;;;;;;14.88;79.23;98454.48;2291380;78;20994;-80
2022/10/02 12:33:06;;;;;;;6.78;3.12;;;;;;;15.00;77.74;98453.91;2291101;78;20950;-83
2022/10/02 12:36:06;;;;;;;6.90;2.70;;;;;;;14.95;76.21;98452.66;2291276;78;20893;-84
2022/10/02 12:39:07;;;;;;;5.47;3.15;;;;;;;14.79;74.28;98449.33;2268230;78;20919;-82
2022/10/02 12:42:07;;;;;;;5.62;2.98;;;;;;;14.64;74.41;98456.04;2290647;78;21265;-83
2022/10/02 12:45:08;;;;;;;5.72;2.52;;;;;;;14.61;75.23;98458.70;2290994;78;20936;-82
2022/10/02 12:48:08;;;;;;;6.67;2.77;;;;;;;14.57;74.12;98459.17;2291037;78;20888;-83
2022/10/02 12:51:09;;;;;;;8.80;3.50;;;;;;;14.69;75.14;98457.30;2290943;78;20908;-81
2022/10/02 12:54:09;;;;;;;9.80;3.00;;;;;;;14.89;74.79;98456.67;2290984;78;21272;-81
2022/10/02 12:57:09;;;;;;;14.55;3.22;;;;;;;15.15;75.06;98453.28;2291024;78;20904;-82
2022/10/02 13:00:13;;;;;;;8.55;2.75;;;;;;;15.46;74.54;98451.11;2291233;78;21002;-82
2022/10/02 13:03:10;;;;;;;6.45;2.77;;;;;;;15.66;72.44;98434.23;2291320;78;20960;-82
2022/10/02 13:06:11;;;;;;;5.60;2.47;;;;;;;15.85;73.07;98437.00;2291634;78;21345;-83
2022/10/02 13:09:11;;;;;;;7.10;3.22;;;;;;;16.06;71.66;98427.89;2291457;78;20938;-82
2022/10/02 13:12:12;;;;;;;9.15;3.00;;;;;;;16.17;72.65;98412.78;2291450;78;20978;-82
2022/10/02 13:15:12;;;;;;;5.50;2.62;;;;;;;16.28;69.64;98424.44;2291499;78;20924;-83
2022/10/02 13:18:13;;;;;;;4.70;2.42;;;;;;;16.40;66.96;98409.28;2291615;78;20912;-84
2022/10/02 13:21:14;;;;;;;5.53;2.20;;;;;;;16.60;63.70;98398.41;2291433;78;20942;-83
2022/10/02 13:24:13;;;;;;;4.55;2.58;;;;;;;16.73;65.82;98403.02;2291483;78;20884;-83
2022/10/02 13:27:15;;;;;;;8.95;2.40;;;;;;;16.75;62.41;98395.50;2291779;78;20909;-82
2022/10/02 13:30:14;;;;;;;6.53;2.50;;;;;;;16.67;64.05;98400.05;2291031;78;21336;-83
2022/10/02 13:33:14;;;;;;;5.03;2.65;;;;;;;16.49;63.17;98403.88;2281758;78;20918;-83
2022/10/02 13:36:15;;;;;;;5.35;2.77;;;;;;;16.32;64.50;98398.02;2281625;78;20899;-83
2022/10/02 13:39:15;;;;;;;14.83;8.03;;;;;;;16.14;64.41;98404.48;2281897;78;20993;-83
2022/10/02 13:42:17;;;;;;;9.83;4.15;;;;;;;16.00;65.59;98395.95;2281538;78;20913;-82
2022/10/02 13:45:16;;;;;;;10.50;5.87;;;;;;;15.87;66.23;98397.05;2281928;78;21298;-83
2022/10/02 13:48:17;;;;;;;6.78;3.85;;;;;;;15.73;65.18;98400.36;2281847;78;21291;-83
2022/10/02 13:51:17;;;;;;;8.00;3.52;;;;;;;15.68;65.80;98401.75;2281815;78;20910;-83
2022/10/02 13:54:17;;;;;;;9.18;3.40;;;;;;;15.63;67.08;98397.00;2281780;78;20911;-83
2022/10/02 13:57:18;;;;;;;5.20;2.25;;;;;;;15.63;67.25;98398.31;2281772;77;20894;-82
2022/10/02 14:00:18;;;;;;;6.15;2.70;;;;;;;15.70;66.99;98397.33;2281586;77;21004;-82
2022/10/02 14:03:18;;;;;;;5.62;2.65;;;;;;;15.73;67.33;98392.02;2281801;77;21239;-83
2022/10/02 14:06:19;;;;;;;8.13;3.45;;;;;;;15.96;67.42;98393.41;2281723;78;20941;-82
2022/10/02 14:09:19;;;;;;;7.72;3.70;;;;;;;16.18;65.24;98376.34;2282007;77;20918;-80
2022/10/02 14:12:20;;;;;;;4.87;2.90;;;;;;;16.31;64.48;98385.75;2281755;78;21321;-80